createdAt,value
2022-08-25T00:02:12.221Z,3.83
2022-08-25T00:04:38.823Z,4.00
2022-08-25T00:07:07.142Z,3.85
2022-08-25T00:09:34.990Z,3.80
2022-08-25T00:12:03.290Z,3.88
2022-08-25T00:14:34.070Z,3.80
2022-08-25T00:17:01.035Z,3.60
2022-08-25T00:19:32.159Z,3.47
2022-08-25T00:22:00.183Z,3.80
2022-08-25T00:24:26.789Z,3.83
2022-08-25T00:26:56.703Z,3.65
2022-08-25T00:29:27.950Z,3.53
2022-08-25T00:31:55.715Z,4.00
2022-08-25T00:34:26.526Z,3.58
2022-08-25T00:36:53.361Z,3.75
2022-08-25T00:39:21.728Z,3.67
2022-08-25T00:41:50.298Z,3.40
2022-08-25T00:44:18.821Z,3.95
2022-08-25T00:46:57.641Z,3.55
2022-08-25T00:49:37.329Z,3.85
2022-08-25T00:52:27.685Z,4.13
2022-08-25T00:55:09.026Z,4.00
2022-08-25T00:58:18.598Z,3.67
2022-08-25T01:00:49.536Z,3.45
2022-08-25T01:03:19.134Z,4.25
2022-08-25T01:05:46.751Z,3.83
2022-08-25T01:08:16.257Z,3.90
2022-08-25T01:10:44.570Z,3.83
2022-08-25T01:13:23.673Z,3.63
2022-08-25T01:15:54.491Z,3.50
2022-08-25T01:18:21.758Z,3.92
2022-08-25T01:20:50.600Z,3.60
2022-08-25T01:23:17.006Z,3.65
2022-08-25T01:25:51.548Z,3.50
2022-08-25T01:28:20.466Z,4.10
2022-08-25T01:30:47.729Z,4.38
2022-08-25T01:33:15.005Z,4.50
2022-08-25T01:35:41.477Z,4.28
2022-08-25T01:38:08.381Z,4.30
2022-08-25T01:40:37.381Z,5.05
2022-08-25T01:43:12.983Z,5.97
2022-08-25T01:45:42.874Z,5.70
2022-08-25T01:48:10.350Z,6.60
2022-08-25T01:50:38.115Z,5.68
2022-08-25T01:53:17.390Z,5.93
2022-08-25T01:55:55.217Z,5.53
2022-08-25T01:58:22.726Z,5.72
2022-08-25T02:00:51.173Z,5.25
2022-08-25T02:03:19.083Z,5.13
2022-08-25T02:05:48.002Z,5.50
2022-08-25T02:08:14.979Z,5.28
2022-08-25T02:10:41.563Z,5.10
2022-08-25T02:13:08.894Z,4.95
2022-08-25T02:15:35.678Z,4.90
2022-08-25T02:18:02.448Z,4.57
2022-08-25T02:20:28.887Z,4.75
2022-08-25T02:22:56.539Z,4.32
2022-08-25T02:25:23.649Z,5.40
2022-08-25T02:27:50.097Z,5.30
2022-08-25T02:30:17.720Z,5.82
2022-08-25T02:32:44.507Z,6.35
2022-08-25T02:35:11.564Z,5.70
2022-08-25T02:37:38.049Z,5.88
2022-08-25T02:40:05.451Z,6.40
2022-08-25T02:42:31.977Z,6.78
2022-08-25T02:44:58.386Z,5.85
2022-08-25T02:47:27.058Z,6.15
2022-08-25T02:49:53.871Z,5.80
2022-08-25T02:52:20.310Z,5.63
2022-08-25T02:54:46.787Z,5.20
2022-08-25T02:57:14.130Z,4.70
2022-08-25T02:59:41.368Z,4.93
2022-08-25T03:02:07.877Z,4.63
2022-08-25T03:04:34.599Z,5.07
2022-08-25T03:07:01.032Z,5.10
2022-08-25T03:09:27.479Z,5.00
2022-08-25T03:11:54.573Z,5.25
2022-08-25T03:14:20.989Z,4.68
2022-08-25T03:16:47.466Z,4.95
2022-08-25T03:19:13.891Z,4.88
2022-08-25T03:21:40.377Z,5.07
2022-08-25T03:24:07.330Z,5.20
2022-08-25T03:26:52.337Z,5.20
2022-08-25T03:29:18.809Z,5.00
2022-08-25T03:31:45.557Z,4.95
2022-08-25T03:34:13.939Z,4.82
2022-08-25T03:36:40.651Z,4.78
2022-08-25T03:39:08.405Z,4.63
2022-08-25T03:41:35.386Z,4.65
2022-08-25T03:44:04.097Z,4.50
2022-08-25T03:46:38.093Z,4.05
2022-08-25T03:49:06.927Z,4.68
2022-08-25T03:51:40.400Z,4.07
2022-08-25T03:54:07.674Z,4.38
2022-08-25T03:56:34.131Z,4.57
2022-08-25T03:59:00.624Z,4.80
2022-08-25T04:01:28.363Z,4.38
2022-08-25T04:03:55.243Z,4.65
2022-08-25T04:06:22.086Z,4.45
2022-08-25T04:08:48.815Z,5.00
2022-08-25T04:11:21.183Z,5.57
2022-08-25T04:13:48.474Z,6.22
2022-08-25T04:16:23.768Z,5.43
2022-08-25T04:18:52.097Z,5.53
2022-08-25T04:21:20.306Z,5.85
2022-08-25T04:23:48.889Z,5.63
2022-08-25T04:26:43.094Z,5.15
2022-08-25T04:29:10.734Z,4.95
2022-08-25T04:31:40.304Z,4.65
2022-08-25T04:34:23.145Z,4.80
2022-08-25T04:36:53.529Z,4.70
2022-08-25T04:39:21.263Z,4.70
2022-08-25T04:41:48.487Z,5.05
2022-08-25T04:44:15.281Z,4.80
2022-08-25T04:46:41.704Z,4.72
2022-08-25T04:49:08.773Z,4.53
2022-08-25T04:51:39.607Z,4.78
2022-08-25T04:54:10.478Z,4.97
2022-08-25T04:56:39.062Z,4.80
2022-08-25T04:59:10.463Z,4.70
2022-08-25T05:01:37.695Z,5.03
2022-08-25T05:04:06.772Z,5.75
2022-08-25T05:06:33.275Z,5.22
2022-08-25T05:09:01.128Z,5.53
2022-08-25T05:11:28.569Z,5.25
2022-08-25T05:13:56.586Z,5.32
2022-08-25T05:16:24.779Z,5.80
2022-08-25T05:18:52.413Z,5.55
2022-08-25T05:21:22.257Z,6.15
2022-08-25T05:23:49.780Z,6.38
2022-08-25T05:26:24.637Z,5.90
2022-08-25T05:28:54.072Z,6.00
2022-08-25T05:31:23.242Z,5.90
2022-08-25T05:33:51.103Z,6.30
2022-08-25T05:36:19.730Z,6.63
2022-08-25T05:38:46.585Z,6.85
2022-08-25T05:41:19.601Z,7.10
2022-08-25T05:43:48.743Z,7.18
2022-08-25T05:46:16.879Z,7.38
2022-08-25T05:48:43.549Z,7.15
2022-08-25T05:51:12.088Z,7.28
2022-08-25T05:53:41.603Z,6.60
2022-08-25T05:56:09.562Z,8.35
2022-08-25T05:58:37.600Z,7.88
2022-08-25T06:01:23.545Z,7.65
2022-08-25T06:03:54.328Z,7.65
2022-08-25T06:06:23.116Z,7.57
2022-08-25T06:08:49.640Z,7.30
2022-08-25T06:11:16.495Z,7.57
2022-08-25T06:13:43.296Z,8.02
2022-08-25T06:16:09.878Z,7.32
2022-08-25T06:18:36.309Z,7.20
2022-08-25T06:21:14.148Z,7.38
2022-08-25T06:23:41.237Z,7.03
2022-08-25T06:26:13.147Z,6.93
2022-08-25T06:28:48.161Z,6.80
2022-08-25T06:31:15.013Z,6.60
2022-08-25T06:33:41.530Z,5.70
2022-08-25T06:36:08.636Z,6.32
2022-08-25T06:38:35.190Z,6.60
2022-08-25T06:41:03.745Z,6.53
2022-08-25T06:43:30.164Z,6.53
2022-08-25T06:45:56.584Z,6.82
2022-08-25T06:48:23.948Z,5.95
2022-08-25T06:50:50.426Z,6.43
2022-08-25T06:53:16.869Z,6.00
2022-08-25T06:55:43.268Z,6.32
2022-08-25T06:58:11.113Z,7.10
2022-08-25T07:00:37.860Z,6.63
2022-08-25T07:03:04.982Z,6.15
2022-08-25T07:05:42.888Z,6.03
2022-08-25T07:10:38.679Z,6.55
2022-08-25T07:13:05.073Z,5.88
2022-08-25T07:15:31.475Z,6.70
2022-08-25T07:17:58.078Z,5.50
2022-08-25T07:22:56.057Z,5.00
2022-08-25T07:25:23.918Z,4.70
2022-08-25T07:27:50.401Z,4.93
2022-08-25T07:30:18.162Z,4.40
2022-08-25T07:32:44.685Z,4.95
2022-08-25T07:35:19.524Z,4.20
2022-08-25T07:37:56.735Z,4.63
2022-08-25T07:40:27.873Z,4.22
2022-08-25T07:42:57.038Z,4.70
2022-08-25T07:45:30.467Z,4.15
2022-08-25T07:47:59.921Z,3.85
2022-08-25T07:50:27.537Z,3.97
2022-08-25T07:52:55.452Z,4.00
2022-08-25T07:55:24.286Z,3.92
2022-08-25T07:57:55.430Z,3.42
2022-08-25T08:00:24.381Z,3.78
2022-08-25T08:02:51.187Z,4.07
2022-08-25T08:05:17.638Z,3.85
2022-08-25T08:07:44.444Z,4.07
2022-08-25T08:13:00.647Z,3.75
2022-08-25T08:15:29.913Z,3.88
2022-08-25T08:17:57.995Z,4.15
2022-08-25T08:20:25.022Z,3.88
2022-08-25T08:22:51.541Z,3.90
2022-08-25T08:25:21.235Z,3.78
2022-08-25T08:27:48.784Z,3.80
2022-08-25T08:30:15.332Z,4.00
2022-08-25T08:33:06.246Z,4.25
2022-08-25T08:35:28.580Z,4.13
2022-08-25T08:37:54.983Z,4.38
2022-08-25T08:40:21.635Z,4.10
2022-08-25T08:43:07.093Z,3.60
2022-08-25T08:45:53.601Z,3.40
2022-08-25T08:48:52.500Z,3.70
2022-08-25T08:51:33.123Z,3.50
2022-08-25T08:54:18.671Z,3.78
2022-08-25T08:56:48.986Z,3.80
2022-08-25T08:59:21.677Z,3.92
2022-08-25T09:02:38.577Z,3.50
2022-08-25T09:05:10.846Z,3.05
2022-08-25T09:07:55.042Z,3.47
2022-08-25T09:10:48.845Z,3.50
2022-08-25T09:13:37.569Z,3.17
2022-08-25T09:16:41.768Z,4.45
2022-08-25T09:19:21.219Z,2.92
2022-08-25T09:22:35.220Z,3.40
2022-08-25T09:25:48.690Z,3.40
2022-08-25T09:28:29.058Z,3.13
2022-08-25T09:31:01.826Z,2.60
2022-08-25T09:33:35.530Z,3.10
2022-08-25T09:36:06.008Z,3.40
2022-08-25T09:38:35.383Z,3.15
2022-08-25T09:41:02.990Z,3.30
2022-08-25T09:43:41.805Z,3.65
2022-08-25T09:46:08.197Z,3.50
2022-08-25T09:48:48.416Z,3.65
2022-08-25T09:51:42.186Z,3.33
2022-08-25T09:54:12.517Z,3.30
2022-08-25T09:56:53.234Z,2.70
2022-08-25T09:59:35.691Z,2.97
2022-08-25T10:02:04.392Z,2.67
2022-08-25T10:04:40.094Z,3.03
2022-08-25T10:07:22.763Z,2.53
2022-08-25T10:09:55.869Z,2.75
2022-08-25T10:12:44.606Z,3.00
2022-08-25T10:15:29.589Z,2.90
2022-08-25T10:18:17.583Z,2.72
2022-08-25T10:20:44.755Z,2.53
2022-08-25T10:23:14.465Z,2.30
2022-08-25T10:25:59.484Z,2.42
2022-08-25T10:28:42.922Z,2.28
2022-08-25T10:31:22.172Z,2.35
2022-08-25T10:34:05.618Z,2.33
2022-08-25T10:36:41.326Z,2.20
2022-08-25T10:39:36.339Z,2.60
2022-08-25T10:42:25.816Z,2.20
2022-08-25T10:45:31.382Z,2.20
2022-08-25T10:48:23.349Z,2.25
2022-08-25T10:51:21.491Z,2.40
2022-08-25T10:54:00.090Z,1.92
2022-08-25T10:56:40.211Z,2.13
2022-08-25T10:59:19.685Z,2.35
2022-08-25T11:02:04.513Z,2.50
2022-08-25T11:04:59.691Z,2.55
2022-08-25T11:07:35.525Z,2.47
2022-08-25T11:10:27.817Z,2.60
2022-08-25T11:13:06.794Z,2.83
2022-08-25T11:16:13.678Z,2.65
2022-08-25T11:18:44.316Z,2.55
2022-08-25T11:21:22.142Z,2.70
2022-08-25T11:24:15.036Z,2.50
2022-08-25T11:26:49.638Z,2.42
2022-08-25T11:29:18.593Z,2.92
2022-08-25T11:31:53.638Z,2.88
2022-08-25T11:34:22.446Z,2.33
2022-08-25T11:36:57.998Z,2.85
2022-08-25T11:39:58.902Z,3.65
2022-08-25T11:42:35.781Z,3.78
2022-08-25T11:45:17.668Z,2.72
2022-08-25T11:48:05.846Z,3.97
2022-08-25T11:50:35.525Z,2.78
2022-08-25T11:53:26.814Z,2.80
2022-08-25T11:56:02.410Z,2.65
2022-08-25T11:58:43.854Z,2.40
2022-08-25T12:01:13.709Z,2.72
2022-08-25T12:03:42.859Z,2.30
2022-08-25T12:06:30.896Z,2.38
2022-08-25T12:09:00.030Z,2.50
2022-08-25T12:11:42.250Z,2.60
2022-08-25T12:14:36.641Z,3.17
2022-08-25T12:17:17.373Z,3.40
2022-08-25T12:19:43.814Z,2.92
2022-08-25T12:22:10.162Z,3.60
2022-08-25T12:24:48.246Z,2.60
2022-08-25T12:27:39.371Z,2.47
2022-08-25T12:30:20.937Z,3.20
2022-08-25T12:33:13.634Z,2.70
2022-08-25T12:35:57.751Z,2.60
2022-08-25T12:38:32.790Z,2.70
2022-08-25T12:41:12.119Z,2.58
2022-08-25T12:43:45.352Z,3.45
2022-08-25T12:46:21.050Z,5.82
2022-08-25T12:49:16.981Z,3.00
2022-08-25T12:51:53.798Z,5.60
2022-08-25T12:54:43.970Z,2.47
2022-08-25T12:57:25.058Z,2.20
2022-08-25T12:59:58.654Z,2.60
2022-08-25T13:02:52.677Z,2.30
2022-08-25T13:05:50.226Z,2.25
2022-08-25T13:08:22.663Z,2.38
2022-08-25T13:11:01.979Z,2.42
2022-08-25T13:13:58.838Z,2.33
2022-08-25T13:16:29.735Z,2.45
2022-08-25T13:18:59.426Z,1.85
2022-08-25T13:21:41.580Z,2.60
2022-08-25T13:24:21.211Z,2.20
2022-08-25T13:26:53.957Z,2.30
2022-08-25T13:29:36.945Z,2.25
2022-08-25T13:32:12.836Z,2.13
2022-08-25T13:34:42.556Z,2.20
2022-08-25T13:37:29.596Z,2.30
2022-08-25T13:40:11.049Z,2.30
2022-08-25T13:42:42.533Z,2.13
2022-08-25T13:45:15.054Z,2.45
2022-08-25T13:47:45.403Z,2.05
2022-08-25T13:50:30.619Z,2.00
2022-08-25T13:53:04.034Z,2.10
2022-08-25T13:55:50.961Z,2.17
2022-08-25T13:58:24.701Z,2.20
2022-08-25T14:01:22.696Z,2.15
2022-08-25T14:04:17.096Z,2.13
2022-08-25T14:06:44.083Z,2.03
2022-08-25T14:09:17.775Z,2.03
2022-08-25T14:11:56.501Z,2.20
2022-08-25T14:14:22.878Z,1.92
2022-08-25T14:16:54.147Z,2.10
2022-08-25T14:19:24.346Z,1.90
2022-08-25T14:21:56.840Z,1.90
2022-08-25T14:24:23.853Z,2.30
2022-08-25T14:26:53.846Z,2.25
2022-08-25T14:29:22.034Z,2.08
2022-08-25T14:31:49.057Z,1.80
2022-08-25T14:34:20.319Z,1.80
2022-08-25T14:36:48.342Z,1.95
2022-08-25T14:39:14.989Z,2.05
2022-08-25T14:41:45.340Z,2.20
2022-08-25T14:44:19.679Z,1.95
2022-08-25T14:46:51.757Z,2.25
2022-08-25T14:49:26.954Z,1.88
2022-08-25T14:51:53.896Z,2.42
2022-08-25T14:54:26.576Z,2.33
2022-08-25T14:56:53.899Z,2.10
2022-08-25T14:59:20.547Z,1.95
2022-08-25T15:01:47.150Z,1.70
2022-08-25T15:04:22.671Z,2.05
2022-08-25T15:06:57.397Z,2.10
2022-08-25T15:09:25.039Z,2.20
2022-08-25T15:11:59.753Z,1.77
2022-08-25T15:14:28.640Z,2.20
2022-08-25T15:16:59.427Z,1.98
2022-08-25T15:19:27.041Z,1.77
2022-08-25T15:21:54.534Z,1.90
2022-08-25T15:24:25.826Z,1.90
2022-08-25T15:26:55.562Z,2.08
2022-08-25T15:29:23.315Z,1.83
2022-08-25T15:31:50.818Z,1.80
2022-08-25T15:34:17.562Z,1.90
2022-08-25T15:36:45.277Z,1.83
2022-08-25T15:39:11.708Z,2.00
2022-08-25T15:41:38.500Z,2.00
2022-08-25T15:44:07.712Z,2.00
2022-08-25T15:46:35.889Z,1.77
2022-08-25T15:49:02.422Z,2.00
2022-08-25T15:51:29.359Z,1.80
2022-08-25T15:53:57.266Z,1.88
2022-08-25T15:56:26.789Z,2.00
2022-08-25T15:58:55.060Z,1.85
2022-08-25T16:01:27.054Z,1.75
2022-08-25T16:03:54.014Z,1.73
2022-08-25T16:06:20.889Z,1.98
2022-08-25T16:08:48.215Z,2.00
2022-08-25T16:11:18.570Z,2.13
2022-08-25T16:13:46.448Z,1.88
2022-08-25T16:16:16.250Z,1.90
2022-08-25T16:18:43.774Z,1.80
2022-08-25T16:21:12.507Z,2.00
2022-08-25T16:23:39.655Z,1.70
2022-08-25T16:26:11.218Z,1.70
2022-08-25T16:28:43.776Z,1.95
2022-08-25T16:31:13.313Z,1.88
2022-08-25T16:36:21.435Z,2.08
2022-08-25T16:38:49.584Z,2.10
2022-08-25T16:41:23.944Z,2.20
2022-08-25T16:43:51.121Z,2.20
2022-08-25T16:46:20.582Z,2.08
2022-08-25T16:48:47.451Z,2.00
2022-08-25T16:51:16.995Z,1.90
2022-08-25T16:54:04.583Z,2.20
2022-08-25T16:56:35.093Z,2.10
2022-08-25T16:59:02.853Z,2.40
2022-08-25T17:01:33.677Z,2.10
2022-08-25T17:04:00.133Z,2.33
2022-08-25T17:06:29.210Z,2.55
2022-08-25T17:08:56.319Z,2.15
2022-08-25T17:11:29.103Z,1.95
2022-08-25T17:14:01.347Z,1.90
2022-08-25T17:16:32.336Z,2.42
2022-08-25T17:19:06.647Z,2.55
2022-08-25T17:21:36.894Z,2.58
2022-08-25T17:24:04.846Z,2.08
2022-08-25T17:26:31.502Z,2.20
2022-08-25T17:29:00.798Z,2.60
2022-08-25T17:31:29.908Z,2.67
2022-08-25T17:33:57.261Z,2.67
2022-08-25T17:36:26.933Z,2.65
2022-08-25T17:38:54.917Z,2.80
2022-08-25T17:41:23.759Z,2.65
2022-08-25T17:43:50.217Z,2.53
2022-08-25T17:46:17.618Z,2.67
2022-08-25T17:48:44.839Z,3.30
2022-08-25T17:51:11.997Z,3.10
2022-08-25T17:53:38.726Z,2.83
2022-08-25T17:56:08.862Z,3.20
2022-08-25T17:58:36.428Z,3.30
2022-08-25T18:01:04.637Z,3.30
2022-08-25T18:03:32.447Z,3.00
2022-08-25T18:05:59.197Z,3.10
2022-08-25T18:08:32.182Z,3.25
2022-08-25T18:11:01.851Z,2.97
2022-08-25T18:13:28.454Z,3.13
2022-08-25T18:15:55.009Z,3.25
2022-08-25T18:18:21.409Z,3.10
2022-08-25T18:20:50.957Z,3.50
2022-08-25T18:23:19.483Z,2.47
2022-08-25T18:25:48.594Z,3.13
2022-08-25T18:28:15.262Z,2.88
2022-08-25T18:30:42.399Z,3.10
2022-08-25T18:33:09.041Z,2.83
2022-08-25T18:35:36.123Z,3.00
2022-08-25T18:38:24.101Z,3.05
2022-08-25T18:40:59.095Z,2.90
2022-08-25T18:43:26.336Z,2.72
2022-08-25T18:45:52.787Z,3.05
2022-08-25T18:48:23.575Z,2.72
2022-08-25T18:50:53.809Z,2.65
2022-08-25T18:53:30.621Z,3.00
2022-08-25T18:56:09.608Z,3.13
2022-08-25T18:58:36.119Z,3.20
2022-08-25T19:01:03.975Z,3.50
2022-08-25T19:03:31.154Z,3.80
2022-08-25T19:05:58.001Z,5.40
2022-08-25T19:08:24.769Z,4.50
2022-08-25T19:10:52.803Z,4.60
2022-08-25T19:13:22.752Z,4.20
2022-08-25T19:15:51.354Z,3.75
2022-08-25T19:18:18.852Z,3.50
2022-08-25T19:20:52.500Z,3.05
2022-08-25T19:23:19.401Z,3.67
2022-08-25T19:25:45.843Z,3.80
2022-08-25T19:28:13.753Z,3.80
2022-08-25T19:30:50.183Z,3.85
2022-08-25T19:33:41.964Z,3.65
2022-08-25T19:36:08.456Z,3.78
2022-08-25T19:38:36.664Z,3.92
2022-08-25T19:41:13.966Z,3.92
2022-08-25T19:43:50.472Z,4.22
2022-08-25T19:46:23.367Z,4.00
2022-08-25T19:48:49.888Z,3.72
2022-08-25T19:51:19.410Z,3.50
2022-08-25T19:53:53.633Z,3.60
2022-08-25T19:56:21.546Z,3.95
2022-08-25T19:58:47.970Z,4.22
2022-08-25T20:01:18.151Z,4.07
2022-08-25T20:03:45.090Z,4.10
2022-08-25T20:06:12.009Z,4.40
2022-08-25T20:08:42.430Z,3.90
2022-08-25T20:11:08.845Z,3.70
2022-08-25T20:13:35.273Z,3.85
2022-08-25T20:16:02.223Z,4.40
2022-08-25T20:18:28.675Z,4.38
2022-08-25T20:20:55.221Z,4.05
2022-08-25T20:23:42.137Z,4.22
2022-08-25T20:26:09.209Z,3.72
2022-08-25T20:28:35.717Z,3.72
2022-08-25T20:31:02.181Z,3.95
2022-08-25T20:33:28.948Z,4.00
2022-08-25T20:35:56.999Z,4.10
2022-08-25T20:38:24.990Z,3.67
2022-08-25T20:40:52.525Z,4.28
2022-08-25T20:43:19.077Z,4.25
2022-08-25T20:45:47.724Z,4.55
2022-08-25T20:48:14.259Z,3.78
2022-08-25T20:50:40.769Z,4.22
2022-08-25T20:53:10.185Z,4.40
2022-08-25T20:55:43.706Z,4.22
2022-08-25T20:58:10.714Z,4.10
2022-08-25T21:00:37.154Z,4.60
2022-08-25T21:03:03.925Z,4.40
2022-08-25T21:05:30.338Z,4.32
2022-08-25T21:07:58.129Z,4.88
2022-08-25T21:10:24.544Z,4.80
2022-08-25T21:12:53.403Z,4.47
2022-08-25T21:15:20.183Z,4.70
2022-08-25T21:17:54.679Z,4.63
2022-08-25T21:20:24.979Z,4.97
2022-08-25T21:22:52.253Z,4.50
2022-08-25T21:25:20.429Z,4.30
2022-08-25T21:27:47.987Z,3.90
2022-08-25T21:30:15.701Z,4.07
2022-08-25T21:32:53.039Z,5.38
2022-08-25T21:35:20.599Z,4.95
2022-08-25T21:37:49.228Z,4.63
2022-08-25T21:40:22.602Z,4.40
2022-08-25T21:42:49.450Z,4.43
2022-08-25T21:45:16.306Z,4.30
2022-08-25T21:47:47.525Z,4.32
2022-08-25T21:50:13.994Z,4.47
2022-08-25T21:52:41.254Z,4.20
2022-08-25T21:55:16.038Z,4.60
2022-08-25T21:57:43.316Z,4.30
2022-08-25T22:00:13.003Z,4.78
2022-08-25T22:02:39.448Z,4.72
2022-08-25T22:05:09.415Z,4.45
2022-08-25T22:07:40.433Z,4.18
2022-08-25T22:10:09.438Z,4.70
2022-08-25T22:12:43.707Z,4.75
2022-08-25T22:15:13.562Z,4.45
2022-08-25T22:17:40.452Z,4.55
2022-08-25T22:20:07.997Z,4.30
2022-08-25T22:22:34.392Z,4.57
2022-08-25T22:25:01.173Z,4.25
2022-08-25T22:27:28.417Z,4.47
2022-08-25T22:29:55.984Z,4.80
2022-08-25T22:32:22.853Z,4.63
2022-08-25T22:34:49.392Z,4.75
2022-08-25T22:37:17.838Z,4.63
2022-08-25T22:39:48.118Z,4.40
2022-08-25T22:42:15.025Z,4.65
2022-08-25T22:44:42.484Z,4.60
2022-08-25T22:47:12.414Z,4.72
2022-08-25T22:49:39.781Z,4.20
2022-08-25T22:52:07.434Z,4.72
2022-08-25T22:54:36.650Z,4.80
2022-08-25T22:57:06.648Z,4.70
2022-08-25T22:59:33.929Z,4.75
2022-08-25T23:02:00.552Z,4.38
2022-08-25T23:04:27.060Z,4.90
2022-08-25T23:06:53.508Z,4.63
2022-08-25T23:09:20.924Z,4.80
2022-08-25T23:11:47.788Z,4.20
2022-08-25T23:14:18.181Z,4.18
2022-08-25T23:16:44.761Z,4.43
2022-08-25T23:19:13.996Z,4.80
2022-08-25T23:21:59.350Z,4.13
2022-08-25T23:24:29.527Z,4.28
2022-08-25T23:27:00.647Z,4.38
2022-08-25T23:29:28.043Z,4.20
2022-08-25T23:31:54.993Z,4.28
2022-08-25T23:34:21.795Z,4.72
2022-08-25T23:36:48.668Z,4.50
2022-08-25T23:39:15.069Z,4.70
2022-08-25T23:41:41.667Z,4.70
2022-08-25T23:44:09.379Z,4.70
2022-08-25T23:46:39.382Z,4.60
2022-08-25T23:49:08.434Z,4.75
2022-08-25T23:51:38.138Z,4.65
2022-08-25T23:54:09.322Z,4.63
2022-08-25T23:56:36.525Z,4.32
2022-08-25T23:59:09.670Z,4.60
